createdAt,value
2023-05-17T03:00:28.877Z,11.70
2023-05-17T03:01:00.807Z,11.80
2023-05-17T03:02:08.480Z,11.70
2023-05-17T03:02:40.506Z,11.60
2023-05-17T03:03:12.839Z,11.70
2023-05-17T03:03:45.018Z,11.50
2023-05-17T03:04:49.345Z,11.60
2023-05-17T03:05:22.040Z,11.50
2023-05-17T03:06:00.781Z,11.50
2023-05-17T03:06:34.751Z,11.50
2023-05-17T03:07:07.450Z,14.00
2023-05-17T03:07:39.778Z,11.50
2023-05-17T03:08:11.575Z,11.40
2023-05-17T03:08:43.830Z,11.40
2023-05-17T03:09:15.710Z,11.40
2023-05-17T03:09:48.433Z,11.60
2023-05-17T03:10:20.524Z,13.10
2023-05-17T03:11:24.813Z,11.30
2023-05-17T03:11:58.301Z,11.30
2023-05-17T03:12:33.924Z,11.30
2023-05-17T03:13:05.733Z,11.30
2023-05-17T03:13:40.913Z,12.30
2023-05-17T03:14:13.486Z,11.30
2023-05-17T03:14:45.326Z,11.30
2023-05-17T03:15:17.191Z,11.40
2023-05-17T03:15:49.253Z,11.20
2023-05-17T03:16:21.592Z,11.30
2023-05-17T03:16:55.330Z,11.20
2023-05-17T03:17:27.951Z,11.20
2023-05-17T03:18:00.273Z,11.30
2023-05-17T03:18:32.288Z,11.20
2023-05-17T03:19:05.525Z,12.20
2023-05-17T03:19:37.594Z,11.20
2023-05-17T03:20:09.952Z,11.00
2023-05-17T03:20:41.858Z,11.20
2023-05-17T03:21:13.670Z,11.00
2023-05-17T03:21:45.538Z,10.90
2023-05-17T03:22:18.085Z,11.90
2023-05-17T03:22:49.914Z,11.00
2023-05-17T03:23:21.989Z,10.90
2023-05-17T03:23:59.969Z,11.10
2023-05-17T03:24:31.809Z,11.20
2023-05-17T03:25:05.799Z,11.60
2023-05-17T03:25:38.639Z,11.20
2023-05-17T03:26:10.512Z,12.20
2023-05-17T03:26:49.330Z,11.10
2023-05-17T03:27:21.861Z,10.80
2023-05-17T03:27:53.911Z,11.40
2023-05-17T03:28:25.903Z,10.60
2023-05-17T03:28:57.806Z,10.90
2023-05-17T03:29:29.559Z,11.10
2023-05-17T03:30:01.912Z,11.10
2023-05-17T03:30:34.619Z,11.00
2023-05-17T03:31:06.647Z,11.70
2023-05-17T03:31:39.479Z,11.80
2023-05-17T03:32:11.274Z,11.50
2023-05-17T03:32:43.133Z,10.90
2023-05-17T03:33:15.095Z,10.60
2023-05-17T03:33:47.280Z,11.10
2023-05-17T03:34:19.666Z,12.00
2023-05-17T03:34:51.574Z,11.00
2023-05-17T03:35:23.596Z,11.00
2023-05-17T03:35:59.269Z,11.00
2023-05-17T03:36:31.381Z,12.00
2023-05-17T03:37:03.227Z,11.80
2023-05-17T03:37:35.227Z,11.60
2023-05-17T03:38:07.232Z,11.00
2023-05-17T03:38:39.196Z,11.90
2023-05-17T03:39:11.244Z,9.00
2023-05-17T03:39:45.062Z,10.90
2023-05-17T03:40:17.118Z,10.70
2023-05-17T03:40:49.024Z,10.90
2023-05-17T03:41:21.768Z,10.80
2023-05-17T03:41:53.745Z,10.90
2023-05-17T03:42:27.171Z,10.90
2023-05-17T03:42:59.012Z,10.90
2023-05-17T03:43:32.191Z,10.70
2023-05-17T03:44:05.378Z,10.90
2023-05-17T03:45:11.038Z,10.90
2023-05-17T03:45:42.815Z,10.90
2023-05-17T03:46:14.827Z,10.90
2023-05-17T03:46:46.625Z,10.90
2023-05-17T03:47:19.060Z,10.90
2023-05-17T03:47:50.958Z,10.90
2023-05-17T03:48:22.909Z,10.90
2023-05-17T03:48:54.831Z,10.90
2023-05-17T03:50:34.212Z,10.90
2023-05-17T03:51:39.100Z,10.90
2023-05-17T03:52:43.800Z,10.90
2023-05-17T03:54:20.559Z,11.00
2023-05-17T03:54:52.440Z,11.00
2023-05-17T03:55:24.559Z,11.00
2023-05-17T03:57:00.960Z,11.00
2023-05-17T03:57:32.768Z,11.00
2023-05-17T03:58:04.643Z,11.00
2023-05-17T03:58:36.863Z,11.00
2023-05-17T04:18:54.824Z,10.80
2023-05-17T04:30:54.210Z,10.60
2023-05-17T04:34:12.840Z,10.60
2023-05-17T04:34:44.847Z,10.60
2023-05-17T04:37:36.724Z,10.60
2023-05-17T04:38:16.320Z,10.50
2023-05-17T04:38:48.721Z,10.50
2023-05-17T04:39:59.041Z,10.60
2023-05-17T04:40:31.629Z,10.50
2023-05-17T04:41:05.305Z,10.50
2023-05-17T04:41:39.539Z,10.50
2023-05-17T04:43:59.363Z,10.60
2023-05-17T04:45:42.250Z,10.60
2023-05-17T04:46:46.434Z,10.50
2023-05-17T04:47:19.202Z,10.50
2023-05-17T04:47:52.773Z,10.40
2023-05-17T04:48:26.302Z,10.40
2023-05-17T04:48:58.539Z,10.40
2023-05-17T04:49:30.734Z,10.40
2023-05-17T04:50:04.672Z,10.40
2023-05-17T04:50:36.464Z,10.40
2023-05-17T04:51:09.256Z,10.40
2023-05-17T04:51:42.106Z,10.40
2023-05-17T04:52:15.004Z,10.30
2023-05-17T04:52:47.711Z,10.30
2023-05-17T04:53:20.039Z,10.40
2023-05-17T04:53:53.122Z,10.20
2023-05-17T04:54:25.609Z,10.20
2023-05-17T04:54:57.413Z,10.20
2023-05-17T04:55:29.678Z,10.20
2023-05-17T04:56:04.064Z,10.00
2023-05-17T04:56:39.126Z,10.20
2023-05-17T04:57:16.128Z,10.20
2023-05-17T04:57:55.887Z,10.20
2023-05-17T04:58:28.719Z,10.20
2023-05-17T04:59:04.002Z,10.30
2023-05-17T04:59:35.847Z,10.20
2023-05-17T05:00:10.125Z,10.20
2023-05-17T05:01:17.422Z,10.30
2023-05-17T05:01:49.665Z,10.20
2023-05-17T05:02:21.565Z,10.20
2023-05-17T05:02:53.584Z,10.30
2023-05-17T05:03:26.500Z,10.20
2023-05-17T05:04:00.326Z,10.20
2023-05-17T05:04:33.765Z,10.20
2023-05-17T05:05:06.796Z,10.10
2023-05-17T05:05:38.738Z,10.10
2023-05-17T05:06:11.477Z,10.40
2023-05-17T05:06:43.375Z,10.10
2023-05-17T05:07:15.714Z,10.10
2023-05-17T05:07:47.762Z,10.10
2023-05-17T05:08:19.681Z,10.00
2023-05-17T05:08:52.477Z,10.00
2023-05-17T05:09:24.472Z,10.00
2023-05-17T05:09:56.789Z,10.10
2023-05-17T05:10:29.320Z,10.10
2023-05-17T05:11:01.693Z,10.10
2023-05-17T05:11:34.892Z,10.10
2023-05-17T05:12:07.113Z,10.10
2023-05-17T05:12:41.928Z,10.20
2023-05-17T05:13:14.166Z,10.00
2023-05-17T05:13:46.984Z,10.10
2023-05-17T05:14:18.797Z,10.10
2023-05-17T05:14:50.762Z,10.20
2023-05-17T05:15:22.871Z,10.00
2023-05-17T05:15:59.783Z,10.10
2023-05-17T05:16:31.826Z,10.10
2023-05-17T05:17:03.781Z,9.90
2023-05-17T05:18:08.398Z,10.10
2023-05-17T05:18:40.610Z,10.10
2023-05-17T05:19:12.804Z,10.20
2023-05-17T05:19:45.198Z,10.10
2023-05-17T05:20:17.708Z,10.00
2023-05-17T05:21:22.424Z,10.00
2023-05-17T05:21:54.298Z,10.00
2023-05-17T05:22:26.386Z,10.00
2023-05-17T05:23:00.884Z,10.00
2023-05-17T05:23:32.911Z,10.00
2023-05-17T05:24:05.198Z,10.00
2023-05-17T05:24:37.158Z,10.00
2023-05-17T05:25:09.614Z,10.00
2023-05-17T05:25:43.203Z,10.00
2023-05-17T05:26:18.701Z,10.00
2023-05-17T05:26:50.675Z,9.80
2023-05-17T05:27:24.410Z,10.20
2023-05-17T05:27:56.365Z,10.00
2023-05-17T05:28:28.296Z,10.00
2023-05-17T05:29:00.204Z,10.00
2023-05-17T05:29:32.061Z,10.10
2023-05-17T05:30:04.926Z,10.00
2023-05-17T05:30:36.845Z,10.00
2023-05-17T05:31:09.623Z,10.10
2023-05-17T05:31:47.876Z,9.60
2023-05-17T05:32:20.887Z,10.00
2023-05-17T05:32:53.451Z,10.00
2023-05-17T05:33:57.806Z,10.10
2023-05-17T05:34:31.534Z,10.00
2023-05-17T05:35:06.570Z,10.00
2023-05-17T05:35:39.275Z,10.10
2023-05-17T05:36:12.329Z,10.10
2023-05-17T05:36:44.641Z,10.00
2023-05-17T05:37:18.647Z,10.10
2023-05-17T05:37:50.981Z,10.20
2023-05-17T05:38:22.902Z,10.00
2023-05-17T05:38:54.840Z,9.80
2023-05-17T05:39:27.969Z,10.00
2023-05-17T05:40:32.697Z,10.10
2023-05-17T05:41:04.705Z,10.00
2023-05-17T05:41:36.611Z,10.50
2023-05-17T05:42:08.471Z,10.80
2023-05-17T05:42:40.299Z,11.10
2023-05-17T05:43:12.066Z,11.30
2023-05-17T05:43:46.177Z,10.10
2023-05-17T05:44:19.196Z,11.30
2023-05-17T05:44:51.338Z,11.60
2023-05-17T05:45:23.990Z,10.10
2023-05-17T05:45:58.271Z,10.00
2023-05-17T05:46:30.102Z,10.10
2023-05-17T05:47:03.068Z,10.40
2023-05-17T05:47:35.520Z,9.80
2023-05-17T05:48:08.941Z,10.30
2023-05-17T05:48:42.063Z,10.00
2023-05-17T05:49:13.970Z,11.30
2023-05-17T05:49:46.042Z,10.10
2023-05-17T05:50:18.147Z,10.30
2023-05-17T05:50:51.471Z,10.80
2023-05-17T05:51:23.344Z,10.00
2023-05-17T05:51:56.950Z,9.80
2023-05-17T05:52:32.309Z,10.60
2023-05-17T05:53:17.336Z,11.20
2023-05-17T05:53:54.167Z,10.00
2023-05-17T05:54:26.049Z,9.90
2023-05-17T05:54:58.048Z,12.30
2023-05-17T05:55:29.908Z,10.10
2023-05-17T05:56:02.140Z,11.40
2023-05-17T05:56:34.347Z,10.00
2023-05-17T05:57:06.624Z,10.00
2023-05-17T05:57:38.419Z,10.10
2023-05-17T05:58:11.361Z,10.20
2023-05-17T05:58:43.679Z,10.00
2023-05-17T05:59:15.539Z,10.10
2023-05-17T05:59:47.309Z,10.10
2023-05-17T06:00:19.504Z,10.10
2023-05-17T06:00:52.368Z,9.90
2023-05-17T06:01:25.252Z,10.30
2023-05-17T06:01:57.064Z,10.10
2023-05-17T06:02:28.974Z,10.10
2023-05-17T06:03:01.003Z,10.10
2023-05-17T06:03:32.858Z,10.20
2023-05-17T06:04:04.878Z,9.90
2023-05-17T06:04:45.018Z,10.00
2023-05-17T06:05:17.935Z,10.20
2023-05-17T06:05:50.067Z,10.00
2023-05-17T06:06:22.009Z,13.70
2023-05-17T06:07:58.889Z,10.00
2023-05-17T06:08:30.979Z,10.10
2023-05-17T06:09:03.691Z,10.10
2023-05-17T06:09:35.665Z,6.50
2023-05-17T06:10:08.039Z,10.10
2023-05-17T06:10:39.908Z,10.10
2023-05-17T06:11:11.734Z,10.10
2023-05-17T06:11:43.536Z,10.10
2023-05-17T06:12:16.400Z,10.10
2023-05-17T06:12:48.213Z,10.10
2023-05-17T06:13:20.253Z,10.70
2023-05-17T06:13:52.110Z,10.10
2023-05-17T06:14:23.938Z,10.10
2023-05-17T06:14:55.741Z,10.20
2023-05-17T06:15:28.578Z,10.70
2023-05-17T06:16:00.377Z,10.20
2023-05-17T06:16:32.224Z,10.00
2023-05-17T06:17:04.480Z,10.10
2023-05-17T06:17:36.299Z,10.50
2023-05-17T06:18:08.164Z,10.20
2023-05-17T06:18:40.096Z,10.10
2023-05-17T06:19:12.051Z,10.20
2023-05-17T06:19:44.077Z,12.00
2023-05-17T06:20:16.502Z,11.50
2023-05-17T06:20:48.357Z,10.00
2023-05-17T06:21:20.167Z,10.20
2023-05-17T06:22:26.833Z,10.10
2023-05-17T06:23:00.691Z,10.00
2023-05-17T06:23:32.541Z,10.20
2023-05-17T06:24:05.136Z,10.10
2023-05-17T06:24:37.216Z,10.20
2023-05-17T06:25:10.933Z,11.60
2023-05-17T06:25:42.827Z,10.10
2023-05-17T06:26:14.773Z,12.10
2023-05-17T06:26:47.255Z,12.20
2023-05-17T06:27:19.139Z,10.10
2023-05-17T06:27:50.972Z,10.60
2023-05-17T06:28:25.584Z,10.20
2023-05-17T06:28:57.376Z,10.00
2023-05-17T06:29:29.183Z,10.00
2023-05-17T06:30:01.283Z,9.90
2023-05-17T06:30:33.206Z,10.10
2023-05-17T06:31:05.186Z,10.10
2023-05-17T06:31:37.295Z,10.00
2023-05-17T06:32:09.038Z,10.00
2023-05-17T06:32:41.557Z,10.10
2023-05-17T06:33:13.536Z,10.10
2023-05-17T06:33:48.683Z,10.00
2023-05-17T06:34:20.532Z,11.50
2023-05-17T06:34:52.315Z,10.20
2023-05-17T06:35:25.015Z,9.90
2023-05-17T06:35:58.119Z,9.90
2023-05-17T06:37:02.476Z,13.60
2023-05-17T06:37:34.329Z,9.90
2023-05-17T06:38:38.307Z,10.00
2023-05-17T06:39:10.082Z,10.00
2023-05-17T06:39:42.682Z,9.90
2023-05-17T06:40:17.427Z,10.30
2023-05-17T06:40:53.937Z,10.70
2023-05-17T06:41:25.933Z,10.00
2023-05-17T06:41:57.793Z,10.00
2023-05-17T06:42:29.585Z,12.00
2023-05-17T06:43:02.196Z,9.90
2023-05-17T06:43:35.637Z,10.30
2023-05-17T06:44:08.954Z,9.90
2023-05-17T06:44:40.863Z,11.80
2023-05-17T06:45:12.749Z,10.00
2023-05-17T06:45:45.361Z,9.90
2023-05-17T06:46:17.238Z,9.80
2023-05-17T06:46:49.097Z,9.50
2023-05-17T06:47:21.038Z,9.90
2023-05-17T06:47:53.443Z,11.50
2023-05-17T06:48:26.383Z,10.10
2023-05-17T06:49:30.782Z,9.90
2023-05-17T06:50:02.713Z,10.20
2023-05-17T06:50:34.608Z,10.00
2023-05-17T06:51:06.464Z,10.20
2023-05-17T06:51:38.264Z,9.40
2023-05-17T06:52:10.072Z,9.80
2023-05-17T06:52:41.864Z,11.60
2023-05-17T06:53:13.856Z,10.00
2023-05-17T06:53:45.715Z,11.30
2023-05-17T06:54:19.555Z,9.90
2023-05-17T06:54:52.036Z,9.90
2023-05-17T06:55:23.816Z,11.70
2023-05-17T06:55:55.755Z,11.50
2023-05-17T06:56:27.606Z,9.70
2023-05-17T06:57:02.830Z,11.40
2023-05-17T06:57:34.703Z,9.90
2023-05-17T06:58:06.855Z,9.80
2023-05-17T06:58:38.921Z,9.90
2023-05-17T06:59:10.812Z,10.00
2023-05-17T06:59:42.617Z,10.10
2023-05-17T07:00:15.332Z,10.00
2023-05-17T07:00:47.309Z,9.80
2023-05-17T07:01:20.537Z,9.90
2023-05-17T07:01:52.408Z,9.90
2023-05-17T07:02:24.288Z,10.00
2023-05-17T07:02:56.457Z,11.80
2023-05-17T07:03:28.684Z,10.60
2023-05-17T07:04:00.797Z,10.00
2023-05-17T07:05:06.910Z,10.00
2023-05-17T07:05:38.772Z,10.00
2023-05-17T07:06:10.661Z,9.90
2023-05-17T07:06:42.490Z,10.00
2023-05-17T07:07:14.503Z,11.40
2023-05-17T07:07:46.257Z,11.00
2023-05-17T07:08:18.248Z,10.10
2023-05-17T07:08:50.041Z,11.30
2023-05-17T07:09:22.115Z,10.20
2023-05-17T07:09:53.960Z,10.10
2023-05-17T07:10:25.952Z,9.50
2023-05-17T07:10:57.913Z,10.00
2023-05-17T07:11:29.741Z,10.10
2023-05-17T07:12:01.556Z,10.10
2023-05-17T07:12:33.898Z,10.80
2023-05-17T07:13:05.754Z,10.40
2023-05-17T07:13:37.523Z,11.40
2023-05-17T07:14:09.341Z,10.00
2023-05-17T07:14:41.191Z,10.00
2023-05-17T07:15:13.063Z,10.00
2023-05-17T07:15:45.334Z,10.60
2023-05-17T07:16:17.114Z,10.50
2023-05-17T07:16:49.267Z,10.90
2023-05-17T07:17:21.034Z,10.50
2023-05-17T07:17:52.971Z,10.10
2023-05-17T07:18:25.051Z,10.20
2023-05-17T07:18:57.081Z,10.10
2023-05-17T07:19:29.103Z,10.50
2023-05-17T07:20:03.014Z,10.20
2023-05-17T07:20:35.006Z,10.40
2023-05-17T07:21:39.093Z,9.80
2023-05-17T07:22:11.490Z,12.00
2023-05-17T07:22:43.349Z,10.20
2023-05-17T07:23:15.176Z,11.00
2023-05-17T07:23:46.962Z,10.10
2023-05-17T07:24:18.768Z,10.20
2023-05-17T07:24:51.146Z,10.20
2023-05-17T07:25:22.929Z,10.20
2023-05-17T07:25:54.696Z,12.20
2023-05-17T07:26:26.526Z,11.60
2023-05-17T07:26:58.335Z,10.20
2023-05-17T07:27:30.119Z,10.30
2023-05-17T07:28:01.917Z,10.30
2023-05-17T07:28:36.634Z,10.30
2023-05-17T07:29:09.150Z,10.20
2023-05-17T07:29:42.171Z,10.40
2023-05-17T07:30:14.122Z,10.20
2023-05-17T07:30:45.924Z,10.30
2023-05-17T07:31:18.099Z,10.30
2023-05-17T07:31:49.876Z,10.20
2023-05-17T07:32:21.676Z,10.30
2023-05-17T07:32:53.975Z,11.30
2023-05-17T07:33:25.772Z,10.30
2023-05-17T07:33:57.588Z,10.60
2023-05-17T07:34:30.889Z,10.30
2023-05-17T07:35:03.137Z,10.10
2023-05-17T07:35:35.164Z,10.20
2023-05-17T07:36:07.599Z,10.30
2023-05-17T07:36:39.630Z,10.20
2023-05-17T07:37:11.500Z,10.30
2023-05-17T07:37:43.362Z,10.30
2023-05-17T07:38:15.289Z,10.40
2023-05-17T07:38:47.211Z,10.50
2023-05-17T07:39:19.517Z,10.80
2023-05-17T07:39:51.398Z,10.40
2023-05-17T07:40:23.193Z,10.30
2023-05-17T07:40:55.056Z,10.40
2023-05-17T07:41:27.188Z,10.50
2023-05-17T07:41:59.158Z,10.60
2023-05-17T07:42:31.099Z,10.50
2023-05-17T07:43:02.906Z,10.50
2023-05-17T07:43:37.470Z,10.40
2023-05-17T07:44:09.326Z,10.50
2023-05-17T07:44:41.144Z,12.00
2023-05-17T07:45:13.117Z,10.80
2023-05-17T07:45:46.200Z,10.50
2023-05-17T07:46:18.961Z,10.50
2023-05-17T07:46:51.014Z,10.60
2023-05-17T07:47:23.039Z,11.60
2023-05-17T07:47:55.151Z,10.60
2023-05-17T07:48:27.332Z,10.60
2023-05-17T07:48:59.309Z,10.80
2023-05-17T07:49:31.980Z,10.50
2023-05-17T07:50:04.504Z,10.30
2023-05-17T07:51:08.634Z,10.60
2023-05-17T07:51:40.517Z,12.20
2023-05-17T07:52:12.786Z,11.10
2023-05-17T07:52:44.629Z,10.80
2023-05-17T07:53:16.430Z,10.70
2023-05-17T07:53:50.497Z,11.10
2023-05-17T07:54:24.878Z,10.70
2023-05-17T07:54:56.660Z,10.60
2023-05-17T07:55:28.733Z,12.40
2023-05-17T07:56:00.793Z,12.50
2023-05-17T07:56:33.718Z,12.40
2023-05-17T07:57:05.741Z,10.80
2023-05-17T07:57:37.632Z,9.10
2023-05-17T07:58:12.296Z,10.60
2023-05-17T07:58:44.104Z,12.20
2023-05-17T07:59:15.938Z,10.80
2023-05-17T08:00:20.503Z,10.80
2023-05-17T08:00:52.386Z,10.80
2023-05-17T08:01:24.228Z,10.80
2023-05-17T08:01:56.645Z,10.90
2023-05-17T08:02:28.610Z,10.90
2023-05-17T08:03:01.397Z,10.90
2023-05-17T08:03:33.204Z,10.90
2023-05-17T08:04:41.793Z,10.90
2023-05-17T08:05:13.671Z,11.00
2023-05-17T08:05:45.584Z,11.00
2023-05-17T08:06:18.233Z,10.50
2023-05-17T08:06:50.413Z,11.20
2023-05-17T08:07:22.259Z,11.10
2023-05-17T08:07:54.121Z,12.40
2023-05-17T08:08:26.353Z,13.10
2023-05-17T08:09:01.131Z,10.90
2023-05-17T08:09:32.911Z,11.70
2023-05-17T08:10:05.114Z,11.00
2023-05-17T08:10:37.864Z,11.20
2023-05-17T08:11:11.027Z,12.10
2023-05-17T08:11:46.536Z,11.00
2023-05-17T08:12:18.339Z,11.10
2023-05-17T08:12:50.187Z,13.10
2023-05-17T08:13:25.616Z,11.00
2023-05-17T08:13:57.536Z,12.40
2023-05-17T08:14:29.483Z,11.20
2023-05-17T08:15:01.323Z,11.30
2023-05-17T08:15:33.111Z,11.10
2023-05-17T08:16:13.705Z,12.20
2023-05-17T08:16:47.008Z,11.00
2023-05-17T08:17:18.757Z,11.10
2023-05-17T08:17:51.010Z,12.40
2023-05-17T08:18:23.010Z,11.20
2023-05-17T08:18:55.130Z,11.20
2023-05-17T08:19:27.445Z,11.20
2023-05-17T08:19:59.439Z,11.40
2023-05-17T08:20:31.299Z,11.20
2023-05-17T08:21:03.296Z,12.50
2023-05-17T08:21:37.165Z,11.10
2023-05-17T08:22:09.448Z,11.40
2023-05-17T08:22:41.538Z,12.30
2023-05-17T08:23:13.431Z,11.20
2023-05-17T08:23:45.253Z,11.20
2023-05-17T08:24:17.758Z,12.30
2023-05-17T08:24:52.115Z,11.20
2023-05-17T08:25:23.968Z,12.30
2023-05-17T08:25:56.157Z,11.10
2023-05-17T08:26:27.952Z,11.40
2023-05-17T08:27:03.496Z,11.40
2023-05-17T08:27:35.322Z,11.20
2023-05-17T08:28:07.166Z,11.20
2023-05-17T08:28:39.243Z,11.40
2023-05-17T08:29:11.103Z,11.50
2023-05-17T08:29:42.986Z,11.50
2023-05-17T08:30:27.820Z,12.50
2023-05-17T08:31:01.137Z,11.30
2023-05-17T08:31:33.697Z,11.30
2023-05-17T08:32:38.401Z,11.30
2023-05-17T08:33:12.674Z,11.60
2023-05-17T08:33:44.675Z,12.10
2023-05-17T08:34:19.192Z,11.40
2023-05-17T08:34:50.987Z,11.30
2023-05-17T08:35:23.248Z,11.30
2023-05-17T08:35:57.759Z,12.80
2023-05-17T08:36:31.939Z,12.40
2023-05-17T08:37:03.891Z,11.30
2023-05-17T08:37:35.717Z,11.30
2023-05-17T08:38:08.454Z,11.40
2023-05-17T08:38:41.179Z,11.40
2023-05-17T08:39:12.998Z,11.60
2023-05-17T08:39:45.024Z,11.40
2023-05-17T08:40:21.454Z,12.70
2023-05-17T08:40:56.987Z,11.40
2023-05-17T08:41:29.269Z,11.40
2023-05-17T08:42:02.460Z,12.00
2023-05-17T08:42:36.589Z,11.50
2023-05-17T08:43:13.164Z,11.40
2023-05-17T08:43:45.180Z,11.40
2023-05-17T08:44:17.359Z,11.60
2023-05-17T08:44:50.022Z,12.60
2023-05-17T08:45:24.104Z,13.00
2023-05-17T08:45:59.283Z,11.50
2023-05-17T08:46:33.169Z,11.50
2023-05-17T08:47:11.207Z,11.60
2023-05-17T08:47:44.780Z,12.00
2023-05-17T08:48:20.335Z,9.90
2023-05-17T08:49:00.041Z,11.50
2023-05-17T08:49:34.564Z,11.80
2023-05-17T08:50:07.710Z,12.00
2023-05-17T08:50:41.105Z,11.60
2023-05-17T08:51:14.170Z,11.60
2023-05-17T08:51:47.272Z,11.70
2023-05-17T08:52:19.162Z,11.60
2023-05-17T08:52:51.591Z,12.00
2023-05-17T08:53:25.330Z,11.90
2023-05-17T08:54:29.796Z,11.70
2023-05-17T08:55:05.115Z,11.20
2023-05-17T08:55:38.544Z,11.80
2023-05-17T08:56:12.907Z,11.70
2023-05-17T08:56:47.192Z,11.70
2023-05-17T08:57:20.265Z,12.50
2023-05-17T08:57:52.530Z,11.90
2023-05-17T08:58:32.582Z,11.70
2023-05-17T08:59:10.336Z,14.10
2023-05-17T08:59:42.761Z,11.80
2023-05-17T09:00:19.270Z,12.40
2023-05-17T09:00:51.751Z,11.60
2023-05-17T09:01:25.862Z,11.80
2023-05-17T09:02:00.523Z,12.10
2023-05-17T09:02:33.120Z,12.30
2023-05-17T09:03:06.373Z,12.60
2023-05-17T09:03:41.207Z,11.90
2023-05-17T09:04:13.725Z,11.90
2023-05-17T09:04:46.854Z,12.00
2023-05-17T09:05:18.881Z,13.40
2023-05-17T09:05:54.896Z,12.10
2023-05-17T09:06:26.818Z,12.80
2023-05-17T09:06:58.908Z,12.50
2023-05-17T09:07:30.776Z,12.10
2023-05-17T09:08:03.062Z,12.00
2023-05-17T09:08:35.025Z,12.00
2023-05-17T09:09:07.473Z,13.90
2023-05-17T09:09:39.520Z,12.80
2023-05-17T09:10:13.503Z,12.10
2023-05-17T09:10:45.535Z,12.10
2023-05-17T09:11:29.317Z,12.30
2023-05-17T09:12:04.182Z,12.20
2023-05-17T09:12:36.083Z,15.10
2023-05-17T09:13:08.169Z,13.50
2023-05-17T09:14:12.184Z,12.20
2023-05-17T09:14:43.964Z,12.80
2023-05-17T09:15:17.750Z,12.20
2023-05-17T09:15:49.890Z,12.20
2023-05-17T09:16:22.168Z,12.20
2023-05-17T09:17:00.118Z,12.30
2023-05-17T09:17:33.952Z,12.20
2023-05-17T09:18:06.221Z,13.20
2023-05-17T09:18:39.360Z,12.30
2023-05-17T09:19:17.687Z,12.30
2023-05-17T09:19:50.433Z,13.60
2023-05-17T09:20:36.846Z,12.40
2023-05-17T09:21:13.270Z,13.50
2023-05-17T09:21:48.359Z,12.30
2023-05-17T09:22:21.382Z,12.40
2023-05-17T09:22:53.291Z,12.40
2023-05-17T09:23:25.143Z,12.30
2023-05-17T09:24:06.123Z,12.10
2023-05-17T09:24:41.286Z,14.10
2023-05-17T09:25:18.871Z,12.50
2023-05-17T09:25:53.295Z,12.40
2023-05-17T09:26:25.498Z,12.10
2023-05-17T09:27:04.263Z,12.20
2023-05-17T09:27:36.147Z,12.50
2023-05-17T09:28:08.099Z,12.50
2023-05-17T09:28:42.212Z,12.30
2023-05-17T09:29:16.014Z,12.50
2023-05-17T09:29:48.555Z,13.00
2023-05-17T09:30:26.514Z,13.30
2023-05-17T09:31:05.548Z,13.20
2023-05-17T09:31:38.184Z,13.20
2023-05-17T09:32:15.124Z,13.70
2023-05-17T09:33:26.819Z,12.40
2023-05-17T09:33:59.566Z,12.40
2023-05-17T09:34:32.685Z,12.70
2023-05-17T09:35:08.892Z,12.70
2023-05-17T09:35:42.566Z,12.70
2023-05-17T09:36:22.478Z,12.50
2023-05-17T09:36:55.062Z,15.10
2023-05-17T09:37:26.901Z,12.70
2023-05-17T09:38:09.943Z,13.50
2023-05-17T09:38:42.228Z,14.00
2023-05-17T09:39:15.304Z,13.40
2023-05-17T09:39:49.722Z,12.50
2023-05-17T09:40:25.680Z,12.80
2023-05-17T09:40:57.561Z,13.40
2023-05-17T09:41:40.329Z,12.80
2023-05-17T09:42:13.528Z,14.00
2023-05-17T09:42:48.288Z,13.80
2023-05-17T09:43:26.462Z,13.30
2023-05-17T09:44:01.072Z,12.90
2023-05-17T09:44:57.409Z,13.60
2023-05-17T09:45:32.529Z,13.00
2023-05-17T09:46:04.548Z,12.90
2023-05-17T09:46:45.900Z,13.00
2023-05-17T09:47:29.173Z,13.10
2023-05-17T09:48:15.522Z,12.70
2023-05-17T09:48:57.222Z,12.70
2023-05-17T09:49:29.162Z,15.20
2023-05-17T09:50:03.670Z,13.80
2023-05-17T09:50:35.682Z,11.20
2023-05-17T09:51:07.671Z,13.00
2023-05-17T09:51:45.088Z,13.10
2023-05-17T09:52:21.373Z,13.20
2023-05-17T09:52:53.273Z,13.80
2023-05-17T09:53:32.735Z,13.10
2023-05-17T09:54:07.027Z,13.20
2023-05-17T09:54:41.260Z,12.90
2023-05-17T09:55:13.533Z,14.50
2023-05-17T09:55:48.892Z,13.60
2023-05-17T09:56:22.643Z,13.30
2023-05-17T09:56:55.398Z,13.20
2023-05-17T09:57:29.101Z,13.20
2023-05-17T09:58:04.234Z,13.90
2023-05-17T09:58:39.202Z,13.30
2023-05-17T09:59:16.241Z,13.40
2023-05-17T09:59:48.901Z,13.40
2023-05-17T10:00:22.152Z,13.40
2023-05-17T10:00:58.944Z,13.40
2023-05-17T10:01:31.968Z,14.00
2023-05-17T10:02:15.194Z,14.40
2023-05-17T10:02:50.053Z,13.40
2023-05-17T10:03:22.377Z,13.40
2023-05-17T10:03:55.648Z,14.20
2023-05-17T10:04:31.902Z,13.70
2023-05-17T10:05:05.705Z,13.40
2023-05-17T10:05:38.721Z,13.50
2023-05-17T10:06:16.586Z,14.60
2023-05-17T10:07:01.436Z,13.50
2023-05-17T10:07:35.010Z,13.70
2023-05-17T10:08:07.444Z,13.80
2023-05-17T10:08:47.238Z,13.00
2023-05-17T10:09:22.408Z,13.60
2023-05-17T10:09:55.992Z,13.30
2023-05-17T10:10:29.101Z,14.30
2023-05-17T10:11:08.881Z,13.60
2023-05-17T10:11:44.234Z,14.40
2023-05-17T10:12:19.350Z,14.50
2023-05-17T10:12:53.334Z,13.60
2023-05-17T10:13:30.451Z,13.70
2023-05-17T10:14:10.350Z,13.80
2023-05-17T10:14:43.922Z,13.80
2023-05-17T10:15:17.733Z,13.80
2023-05-17T10:15:51.537Z,14.00
2023-05-17T10:16:25.032Z,14.50
2023-05-17T10:16:58.089Z,13.80
2023-05-17T10:17:30.760Z,14.20
2023-05-17T10:18:04.116Z,13.90
2023-05-17T10:18:38.269Z,13.80
2023-05-17T10:19:12.197Z,13.90
2023-05-17T10:19:44.847Z,13.90
2023-05-17T10:20:17.657Z,14.60
2023-05-17T10:20:50.485Z,13.90
2023-05-17T10:21:22.894Z,14.00
2023-05-17T10:21:58.731Z,14.10
2023-05-17T10:22:37.156Z,14.50
2023-05-17T10:23:09.967Z,14.80
2023-05-17T10:23:44.514Z,13.80
2023-05-17T10:24:17.082Z,14.10
2023-05-17T10:24:51.521Z,14.10
2023-05-17T10:25:23.971Z,14.00
2023-05-17T10:25:56.310Z,11.30
2023-05-17T10:26:29.187Z,12.10
2023-05-17T10:27:01.875Z,14.30
2023-05-17T10:27:34.332Z,15.10
2023-05-17T10:28:07.986Z,14.10
2023-05-17T10:28:40.617Z,14.10
2023-05-17T10:29:13.009Z,14.10
2023-05-17T10:29:47.113Z,14.20
2023-05-17T10:30:22.488Z,14.00
2023-05-17T10:30:55.019Z,14.20
2023-05-17T10:31:30.414Z,14.20
2023-05-17T10:32:10.762Z,14.20
2023-05-17T10:32:44.108Z,14.20
2023-05-17T10:33:18.928Z,14.20
2023-05-17T10:33:52.048Z,14.30
2023-05-17T10:34:27.906Z,14.20
2023-05-17T10:35:11.408Z,14.30
2023-05-17T10:35:46.134Z,14.30
2023-05-17T10:36:19.870Z,14.30
2023-05-17T10:36:53.334Z,14.30
2023-05-17T10:37:26.453Z,14.30
2023-05-17T10:37:58.516Z,14.30
2023-05-17T10:38:41.600Z,14.40
2023-05-17T10:39:18.183Z,14.40
2023-05-17T10:39:52.271Z,14.40
2023-05-17T10:40:25.018Z,14.40
2023-05-17T10:40:59.365Z,14.40
2023-05-17T10:41:39.780Z,14.40
2023-05-17T10:42:15.900Z,14.60
2023-05-17T10:42:53.825Z,14.50
2023-05-17T10:43:30.292Z,14.60
2023-05-17T10:44:10.377Z,14.50
2023-05-17T10:44:43.144Z,14.50
2023-05-17T10:45:15.416Z,14.50
2023-05-17T10:45:47.708Z,14.50
2023-05-17T10:46:21.905Z,14.40
2023-05-17T10:46:56.220Z,14.50
2023-05-17T10:47:34.778Z,14.70
2023-05-17T10:48:08.148Z,14.60
2023-05-17T10:48:44.140Z,14.60
2023-05-17T10:49:24.064Z,14.60
2023-05-17T10:49:57.178Z,15.80
2023-05-17T10:50:29.526Z,14.50
2023-05-17T10:51:07.779Z,14.70
2023-05-17T10:51:39.786Z,14.70
2023-05-17T10:52:20.935Z,14.70
2023-05-17T10:52:55.915Z,14.70
2023-05-17T10:53:28.258Z,14.70
2023-05-17T10:54:08.593Z,14.70
2023-05-17T10:54:47.824Z,14.70
2023-05-17T10:55:27.322Z,14.80
2023-05-17T10:55:59.585Z,14.80
2023-05-17T10:56:32.579Z,14.60
2023-05-17T10:57:08.427Z,14.80
2023-05-17T10:58:20.730Z,15.50
2023-05-17T10:59:16.759Z,14.80
2023-05-17T11:00:00.677Z,14.90
2023-05-17T12:02:30.984Z,16.40
2023-05-17T12:03:35.976Z,16.50
2023-05-17T12:04:08.125Z,16.40
2023-05-17T12:04:40.114Z,16.40
2023-05-17T13:46:03.715Z,17.80
2023-05-17T13:46:36.360Z,17.80
2023-05-17T13:47:08.611Z,17.70
2023-05-17T13:47:40.697Z,18.00
2023-05-17T13:48:12.654Z,17.70
2023-05-17T13:48:47.412Z,17.90
2023-05-17T13:49:19.603Z,17.60
2023-05-17T13:49:51.456Z,17.90
2023-05-17T13:50:24.014Z,17.50
2023-05-17T13:50:55.958Z,17.60
2023-05-17T13:51:27.760Z,17.60
2023-05-17T13:52:00.590Z,17.60